Time;durP1;ratioP1;P1;durP2;ratioP2;P2;SDS_P1;SDS_P2;PMS_P1;PMS_P2;Temp;Humidity;BMP_temperature;BMP_pressure;BME280_temperature;BME280_humidity;BME280_pressure;Samples;Min_cycle;Max_cycle;Signal;HPM_P1;HPM_P2
2023/11/29 00:01:12;;;;;;;9.37;8.10;;;;;;;-0.37;82.86;94662.50;4960786;28;20216;-80
2023/11/29 00:03:38;;;;;;;8.93;8.03;;;;;;;-0.59;82.61;94663.97;4957073;28;20228;-80
2023/11/29 00:06:03;;;;;;;9.50;8.07;;;;;;;-0.91;83.48;94648.22;4947458;28;20658;-79
2023/11/29 00:08:29;;;;;;;10.13;8.10;;;;;;;-0.45;82.94;94647.72;4971062;28;20224;-80
2023/11/29 00:10:55;;;;;;;9.97;8.33;;;;;;;-0.34;82.16;94642.72;4957847;28;20650;-80
2023/11/29 00:13:20;;;;;;;10.60;8.60;;;;;;;-0.54;82.99;94643.22;4959648;28;20217;-79
2023/11/29 00:15:46;;;;;;;9.30;8.23;;;;;;;-0.42;82.61;94633.97;4975326;28;20206;-80
2023/11/29 00:18:12;;;;;;;10.90;8.97;;;;;;;-0.51;83.40;94640.50;4970837;28;20209;-79
2023/11/29 00:20:38;;;;;;;11.47;9.57;;;;;;;-0.36;82.94;94634.34;4972893;28;20224;-78
2023/11/29 00:23:03;;;;;;;10.53;8.53;;;;;;;-0.21;82.40;94636.78;4954580;28;20209;-79
2023/11/29 00:25:28;;;;;;;11.03;9.07;;;;;;;-0.56;83.03;94634.88;4955796;28;20243;-78
2023/11/29 00:27:54;;;;;;;11.97;9.63;;;;;;;-0.59;83.69;94637.66;4923296;29;20221;-79
2023/11/29 00:30:19;;;;;;;12.27;9.80;;;;;;;-0.44;83.47;94628.13;4939712;28;20564;-79
2023/11/29 00:32:44;;;;;;;11.83;9.80;;;;;;;-0.60;83.95;94629.19;4958018;28;20595;-78
2023/11/29 00:35:10;;;;;;;13.57;10.00;;;;;;;-0.59;83.88;94627.44;4940373;28;20236;-80
2023/11/29 00:37:35;;;;;;;11.57;10.00;;;;;;;-0.45;83.31;94632.41;4956097;28;20192;-80
2023/11/29 00:40:01;;;;;;;15.90;10.63;;;;;;;-0.43;83.58;94627.22;4938089;28;20205;-79
2023/11/29 00:42:26;;;;;;;11.80;10.00;;;;;;;-0.42;83.65;94626.31;4971679;28;20674;-80
2023/11/29 00:44:55;;;;;;;13.87;10.07;;;;;;;-0.44;82.98;94623.88;4943115;28;20267;-80
2023/11/29 00:47:20;;;;;;;15.43;10.67;;;;;;;-0.46;83.26;94623.13;4939976;28;20291;-80
2023/11/29 00:49:46;;;;;;;11.90;9.87;;;;;;;-0.44;83.00;94634.06;4971341;28;20653;-80
2023/11/29 00:52:11;;;;;;;12.17;9.50;;;;;;;-0.35;82.55;94624.97;4955329;28;20209;-80
2023/11/29 00:54:36;;;;;;;12.23;9.70;;;;;;;-0.66;82.09;94626.22;4927159;28;20200;-80
2023/11/29 00:57:02;;;;;;;12.23;9.60;;;;;;;-0.62;82.20;94625.06;4938493;28;20662;-80
2023/11/29 00:59:27;;;;;;;11.00;8.77;;;;;;;-0.87;82.09;94623.38;4939402;29;20189;-81
2023/11/29 01:01:53;;;;;;;11.10;8.50;;;;;;;-1.08;82.95;94615.38;4971361;28;20337;-80
2023/11/29 01:04:18;;;;;;;13.90;9.67;;;;;;;-0.98;82.00;94613.84;4970850;28;20239;-80
2023/11/29 01:06:43;;;;;;;11.70;9.07;;;;;;;-0.84;81.52;94615.50;4940039;28;20243;-80
2023/11/29 01:09:10;;;;;;;12.00;8.90;;;;;;;-0.73;80.89;94619.88;4973087;28;20354;-79
2023/11/29 01:11:35;;;;;;;11.23;8.57;;;;;;;-0.73;80.91;94617.34;4954956;28;20600;-79
2023/11/29 01:14:00;;;;;;;11.23;9.00;;;;;;;-0.67;81.17;94616.94;4940629;28;20216;-80
2023/11/29 01:16:26;;;;;;;11.90;8.83;;;;;;;-0.83;81.10;94616.31;4958351;28;20284;-79
2023/11/29 01:18:51;;;;;;;11.87;9.50;;;;;;;-0.74;81.38;94623.38;4939833;29;20232;-79
2023/11/29 01:21:17;;;;;;;11.33;8.60;;;;;;;-0.98;80.04;94618.94;4938753;28;20266;-80
2023/11/29 01:23:43;;;;;;;12.27;9.20;;;;;;;-0.82;80.23;94615.41;4938691;29;20212;-79
2023/11/29 01:26:09;;;;;;;10.50;8.13;;;;;;;-0.96;80.59;94613.78;4959131;28;20231;-79
2023/11/29 01:28:35;;;;;;;12.13;8.47;;;;;;;-0.83;80.34;94608.69;4955391;28;20247;-79
2023/11/29 01:31:05;;;;;;;12.90;9.07;;;;;;;-0.91;80.33;94615.09;4979991;28;20189;-78
2023/11/29 01:33:30;;;;;;;13.20;9.90;;;;;;;-0.97;80.16;94614.66;4954082;28;20232;-80
2023/11/29 01:35:56;;;;;;;12.63;8.57;;;;;;;-1.08;80.75;94612.84;4939324;28;20633;-80
2023/11/29 01:38:21;;;;;;;10.37;7.97;;;;;;;-1.31;81.21;94608.44;4939486;29;20652;-80
2023/11/29 01:40:46;;;;;;;14.67;9.67;;;;;;;-1.20;80.88;94609.38;4948438;29;20232;-79
2023/11/29 01:43:12;;;;;;;10.30;7.60;;;;;;;-1.37;81.22;94604.53;4953136;28;20330;-79
2023/11/29 01:45:37;;;;;;;11.63;8.57;;;;;;;-1.15;80.25;94604.81;4951928;28;20189;-80
2023/11/29 01:48:03;;;;;;;11.97;8.97;;;;;;;-1.23;80.69;94601.13;4954588;28;20638;-79
2023/11/29 01:50:33;;;;;;;12.33;8.53;;;;;;;-1.29;80.41;94601.50;4974237;28;20192;-79
2023/11/29 01:52:58;;;;;;;11.43;8.30;;;;;;;-1.32;80.91;94604.25;4940712;28;20216;-79
2023/11/29 01:55:27;;;;;;;12.73;8.57;;;;;;;-1.39;80.95;94608.94;4957124;28;20909;-79
2023/11/29 01:57:54;;;;;;;12.43;9.00;;;;;;;-1.40;80.40;94609.03;4942603;28;20625;-79
2023/11/29 02:00:19;;;;;;;11.17;7.80;;;;;;;-1.56;80.63;94609.19;4958089;28;20185;-80
2023/11/29 02:02:44;;;;;;;10.80;7.73;;;;;;;-1.53;80.73;94609.78;4955491;28;20212;-80
2023/11/29 02:05:10;;;;;;;12.17;8.17;;;;;;;-1.50;80.54;94607.06;4938289;28;20196;-80
2023/11/29 02:07:36;;;;;;;13.07;8.50;;;;;;;-1.53;80.45;94614.06;4968177;28;20209;-79
2023/11/29 02:10:03;;;;;;;10.63;8.00;;;;;;;-1.67;81.48;94606.50;4974115;28;20211;-79
2023/11/29 02:12:29;;;;;;;11.27;8.03;;;;;;;-1.75;81.24;94595.09;4969813;28;20292;-80
2023/11/29 02:14:56;;;;;;;9.63;7.30;;;;;;;-1.72;81.35;94601.69;4938343;29;20640;-80
2023/11/29 02:17:21;;;;;;;11.43;8.50;;;;;;;-1.76;81.96;94590.91;4921250;28;20669;-80
2023/11/29 02:19:47;;;;;;;12.23;8.27;;;;;;;-1.80;82.01;94593.72;4954710;28;20290;-80
2023/11/29 02:22:13;;;;;;;11.60;8.43;;;;;;;-1.74;81.78;94594.16;4938758;28;20216;-79
2023/11/29 02:24:42;;;;;;;13.50;8.90;;;;;;;-1.63;81.61;94582.47;4938052;29;20198;-80
2023/11/29 02:27:08;;;;;;;13.30;8.67;;;;;;;-1.65;81.24;94576.69;4953298;28;20219;-79
2023/11/29 02:29:34;;;;;;;11.37;8.33;;;;;;;-1.83;81.82;94574.38;4953043;28;20181;-79
2023/11/29 02:31:59;;;;;;;9.80;7.83;;;;;;;-1.78;82.02;94576.63;4962779;28;20674;-79
2023/11/29 02:34:24;;;;;;;12.93;8.03;;;;;;;-1.73;81.79;94566.97;4953591;28;20231;-79
2023/11/29 02:36:50;;;;;;;13.80;8.50;;;;;;;-1.80;82.13;94579.28;4937715;29;20189;-80
2023/11/29 02:39:15;;;;;;;10.90;7.90;;;;;;;-1.75;81.93;94573.91;4945239;28;20227;-80
2023/11/29 02:41:40;;;;;;;12.40;7.70;;;;;;;-1.69;81.70;94573.50;4958885;28;20569;-80
2023/11/29 02:44:06;;;;;;;11.83;7.27;;;;;;;-1.82;82.01;94572.66;4963035;28;20204;-79
2023/11/29 02:46:31;;;;;;;11.60;8.00;;;;;;;-1.65;81.40;94574.13;4953200;28;20298;-79
2023/11/29 02:48:57;;;;;;;10.53;7.47;;;;;;;-1.59;81.02;94574.56;4937264;28;20208;-78
2023/11/29 02:51:27;;;;;;;9.67;7.30;;;;;;;-1.62;81.08;94574.75;4954853;28;20778;-80
2023/11/29 02:53:52;;;;;;;11.30;7.30;;;;;;;-1.48;81.14;94572.13;4955226;28;20199;-79
2023/11/29 02:56:19;;;;;;;10.17;6.63;;;;;;;-1.43;80.93;94572.63;4936758;28;20197;-79
2023/11/29 02:58:44;;;;;;;10.67;6.93;;;;;;;-1.46;80.71;94565.22;4937565;29;20197;-80
2023/11/29 03:01:09;;;;;;;9.87;6.70;;;;;;;-1.46;81.26;94570.31;4957965;28;20216;-80
2023/11/29 03:03:35;;;;;;;9.33;6.70;;;;;;;-1.48;80.73;94567.03;4954284;28;20212;-80
2023/11/29 03:06:00;;;;;;;8.90;6.90;;;;;;;-1.52;80.85;94563.03;4949535;28;20195;-79
2023/11/29 03:08:26;;;;;;;7.83;6.50;;;;;;;-1.44;80.65;94570.19;4954455;28;20219;-78
2023/11/29 03:10:53;;;;;;;8.97;6.67;;;;;;;-1.49;80.67;94570.50;4968009;28;20189;-80
2023/11/29 03:13:18;;;;;;;9.77;6.43;;;;;;;-1.49;80.93;94564.59;4938714;28;20213;-79
2023/11/29 03:15:43;;;;;;;9.37;6.77;;;;;;;-1.48;80.97;94563.69;4957081;28;20207;-79
2023/11/29 03:18:09;;;;;;;8.67;6.23;;;;;;;-1.58;81.52;94560.09;4936689;28;20683;-79
2023/11/29 03:20:34;;;;;;;8.43;5.97;;;;;;;-1.55;80.95;94563.25;4969337;28;20596;-79
2023/11/29 03:22:59;;;;;;;8.70;6.43;;;;;;;-1.59;81.29;94554.19;4972002;28;20215;-80
2023/11/29 03:25:25;;;;;;;8.90;6.40;;;;;;;-1.60;81.54;94559.38;4974525;28;20192;-78
2023/11/29 03:27:50;;;;;;;8.53;6.13;;;;;;;-1.60;81.27;94550.00;4968852;28;20686;-80
2023/11/29 03:30:15;;;;;;;8.47;6.47;;;;;;;-1.48;81.15;94556.03;4936793;28;20226;-79
2023/11/29 03:32:41;;;;;;;7.20;5.63;;;;;;;-1.56;81.42;94545.53;4935719;28;20788;-80
2023/11/29 03:35:07;;;;;;;7.03;5.97;;;;;;;-1.57;81.57;94547.28;4956845;28;20283;-80
2023/11/29 03:37:32;;;;;;;8.83;6.23;;;;;;;-1.61;81.74;94545.81;4949731;28;20194;-79
2023/11/29 03:39:57;;;;;;;6.87;5.53;;;;;;;-1.49;81.19;94550.13;4981243;28;20207;-79
2023/11/29 03:42:23;;;;;;;8.00;5.80;;;;;;;-1.52;81.42;94539.31;4954290;28;20309;-80
2023/11/29 03:44:48;;;;;;;9.23;6.10;;;;;;;-1.65;81.58;94541.84;4941622;28;20193;-79
2023/11/29 03:47:14;;;;;;;10.00;5.90;;;;;;;-1.57;81.52;94539.63;4922657;28;20244;-80
2023/11/29 03:49:39;;;;;;;6.73;5.53;;;;;;;-1.55;81.10;94531.88;4954682;28;20196;-80
2023/11/29 03:52:04;;;;;;;7.77;5.83;;;;;;;-1.78;81.70;94533.34;4952709;28;20219;-79
2023/11/29 03:54:30;;;;;;;8.07;5.97;;;;;;;-1.58;80.82;94532.09;4969987;28;20193;-80
2023/11/29 03:56:55;;;;;;;7.13;6.30;;;;;;;-1.68;81.37;94526.75;4960045;28;20484;-79
2023/11/29 03:59:20;;;;;;;8.07;6.10;;;;;;;-1.69;80.94;94520.03;4952566;28;20189;-80
2023/11/29 04:01:46;;;;;;;8.80;6.10;;;;;;;-1.74;81.26;94517.00;4937228;29;20189;-80
2023/11/29 04:04:11;;;;;;;7.80;6.40;;;;;;;-1.58;80.89;94515.09;4952062;28;20248;-80
2023/11/29 04:06:36;;;;;;;8.97;6.07;;;;;;;-1.66;81.04;94508.88;4941107;28;20240;-79
2023/11/29 04:09:03;;;;;;;8.57;5.97;;;;;;;-1.65;80.70;94513.03;4968996;28;20255;-80
2023/11/29 04:11:28;;;;;;;9.13;6.93;;;;;;;-1.69;80.76;94511.59;4920922;29;20203;-80
2023/11/29 04:13:53;;;;;;;8.13;5.63;;;;;;;-1.85;81.74;94515.13;4952374;28;20216;-79
2023/11/29 04:16:20;;;;;;;8.63;5.97;;;;;;;-1.71;81.84;94502.31;4937280;28;20588;-79
2023/11/29 04:18:46;;;;;;;8.30;6.53;;;;;;;-1.68;80.77;94506.41;4937843;29;20635;-80
2023/11/29 04:21:23;;;;;;;11.03;7.23;;;;;;;-1.70;81.13;94500.59;4936555;28;20256;-80
2023/11/29 04:23:49;;;;;;;8.30;6.60;;;;;;;-1.71;81.49;94501.50;4936615;29;20579;-80
2023/11/29 04:26:24;;;;;;;7.87;5.57;;;;;;;-1.73;81.83;94493.97;4935989;28;20194;-80
2023/11/29 04:28:49;;;;;;;11.93;8.00;;;;;;;-1.60;81.30;94493.16;4937745;28;20201;-80
2023/11/29 04:31:15;;;;;;;12.87;10.03;;;;;;;-1.53;81.08;94497.75;4960995;28;20671;-79
2023/11/29 04:33:40;;;;;;;9.33;7.07;;;;;;;-1.68;81.88;94497.94;4920914;28;20205;-80
2023/11/29 04:36:06;;;;;;;19.53;13.93;;;;;;;-1.42;81.74;94499.59;4954290;28;20192;-78
2023/11/29 04:38:31;;;;;;;14.37;9.53;;;;;;;-1.39;81.84;94490.97;4956328;28;20249;-80
2023/11/29 04:40:56;;;;;;;22.53;15.53;;;;;;;-1.28;82.52;94498.69;4923977;29;20301;-80
2023/11/29 04:43:22;;;;;;;13.57;9.17;;;;;;;-1.12;81.83;94496.75;4939720;29;20214;-80
2023/11/29 04:45:47;;;;;;;10.30;7.83;;;;;;;-1.06;81.44;94498.91;4955743;28;20651;-79
2023/11/29 04:48:12;;;;;;;13.90;12.40;;;;;;;-1.06;81.34;94500.63;4924196;28;20589;-80
2023/11/29 04:50:38;;;;;;;9.73;8.13;;;;;;;-1.06;81.63;94500.63;4946104;29;20193;-79
2023/11/29 04:53:03;;;;;;;11.50;8.20;;;;;;;-0.93;81.57;94496.34;4940407;28;20217;-78
2023/11/29 04:55:28;;;;;;;9.33;6.57;;;;;;;-1.03;81.97;94497.88;4971436;28;20200;-79
2023/11/29 04:57:54;;;;;;;9.10;7.00;;;;;;;-1.08;81.92;94487.97;4955482;28;20189;-78
2023/11/29 05:00:19;;;;;;;8.50;6.17;;;;;;;-0.98;82.11;94483.88;4972970;28;20213;-80
2023/11/29 05:02:45;;;;;;;9.27;6.00;;;;;;;-0.94;82.28;94479.41;4955397;28;20212;-80
2023/11/29 05:05:10;;;;;;;9.50;7.43;;;;;;;-0.86;81.74;94475.44;4939109;28;20188;-78
2023/11/29 05:07:36;;;;;;;9.03;6.77;;;;;;;-0.99;82.43;94474.63;4955141;28;20201;-80
2023/11/29 05:10:01;;;;;;;8.40;6.63;;;;;;;-1.18;82.68;94471.69;4975194;28;20199;-79
2023/11/29 05:12:26;;;;;;;9.30;7.13;;;;;;;-1.02;82.67;94454.44;4955965;28;20205;-79
2023/11/29 05:14:52;;;;;;;7.93;6.27;;;;;;;-1.01;82.46;94463.72;4970725;28;20551;-79
2023/11/29 05:17:17;;;;;;;8.77;6.47;;;;;;;-1.26;83.13;94479.84;4955430;28;20205;-78
2023/11/29 05:19:42;;;;;;;10.20;7.93;;;;;;;-0.96;82.88;94456.59;4936143;28;20184;-78
2023/11/29 05:22:08;;;;;;;9.93;7.50;;;;;;;-1.01;83.42;94475.66;4972513;28;20573;-77
2023/11/29 05:24:33;;;;;;;10.47;6.60;;;;;;;-1.16;83.23;94462.22;4957629;28;20223;-78
2023/11/29 05:26:58;;;;;;;9.13;6.37;;;;;;;-0.80;82.90;94463.16;4955872;28;20232;-78
2023/11/29 05:29:24;;;;;;;8.93;7.07;;;;;;;-1.02;82.95;94462.09;4969640;28;20231;-78
2023/11/29 05:31:49;;;;;;;9.10;6.93;;;;;;;-0.88;82.21;94458.63;4940980;28;20188;-80
2023/11/29 05:34:14;;;;;;;9.40;7.30;;;;;;;-0.90;82.37;94460.44;4941336;28;20562;-78
2023/11/29 05:36:40;;;;;;;9.03;7.07;;;;;;;-0.80;81.87;94463.97;4953344;28;20698;-78
2023/11/29 05:39:08;;;;;;;8.10;6.73;;;;;;;-0.72;81.65;94459.16;4958946;28;20254;-79
2023/11/29 05:41:33;;;;;;;9.37;7.00;;;;;;;-0.63;80.85;94470.47;4971398;28;20553;-79
2023/11/29 05:43:59;;;;;;;9.83;6.30;;;;;;;-0.77;81.75;94468.88;4922192;28;20264;-79
2023/11/29 05:46:24;;;;;;;8.53;6.47;;;;;;;-0.64;81.29;94466.28;4953275;28;20210;-79
2023/11/29 05:48:49;;;;;;;9.67;6.43;;;;;;;-0.74;81.58;94463.56;4937622;29;20191;-79
2023/11/29 05:51:15;;;;;;;12.87;8.27;;;;;;;-0.78;81.51;94464.72;4954283;28;20229;-79
2023/11/29 05:53:40;;;;;;;10.77;7.43;;;;;;;-0.84;81.10;94466.84;4956359;28;20549;-79
2023/11/29 05:56:06;;;;;;;12.20;8.20;;;;;;;-0.69;81.13;94458.97;4968665;28;20185;-80
2023/11/29 05:58:31;;;;;;;9.57;7.10;;;;;;;-0.58;80.62;94468.41;4958528;28;20197;-80
2023/11/29 06:00:56;;;;;;;11.27;7.27;;;;;;;-0.66;80.65;94470.69;4941174;29;20192;-79
2023/11/29 06:03:25;;;;;;;10.13;7.23;;;;;;;-0.81;81.75;94480.19;4920729;29;20703;-79
2023/11/29 06:05:50;;;;;;;7.23;6.10;;;;;;;-0.66;81.07;94483.44;4940608;29;20553;-79
2023/11/29 06:08:16;;;;;;;9.67;6.63;;;;;;;-0.56;80.88;94494.63;4936505;28;20217;-80
2023/11/29 06:10:42;;;;;;;8.30;6.43;;;;;;;-0.51;80.98;94502.78;4953231;28;20193;-78
2023/11/29 06:13:08;;;;;;;9.60;6.83;;;;;;;-0.50;80.71;94498.50;4968200;28;20300;-79
2023/11/29 06:15:33;;;;;;;8.67;6.63;;;;;;;-0.47;80.63;94504.19;4942031;29;20264;-79
2023/11/29 06:17:58;;;;;;;8.10;6.10;;;;;;;-0.50;81.24;94498.50;4936460;28;20195;-79
2023/11/29 06:20:24;;;;;;;10.43;6.87;;;;;;;-0.54;81.60;94494.50;4953299;28;20200;-79
2023/11/29 06:22:49;;;;;;;9.67;7.07;;;;;;;-0.88;81.29;94502.75;4935660;28;20686;-79
2023/11/29 06:25:15;;;;;;;12.97;8.17;;;;;;;-0.71;81.34;94500.78;4958255;28;20189;-79
2023/11/29 06:27:40;;;;;;;9.30;6.57;;;;;;;-0.78;80.81;94490.19;4951538;28;20269;-79
2023/11/29 06:30:07;;;;;;;7.93;5.73;;;;;;;-0.80;80.76;94489.47;4974807;28;20191;-79
2023/11/29 06:32:32;;;;;;;8.60;6.27;;;;;;;-0.70;80.33;94485.41;4990919;28;20216;-78
2023/11/29 06:34:57;;;;;;;7.13;5.40;;;;;;;-0.72;80.54;94481.31;4963501;28;20172;-79
2023/11/29 06:37:23;;;;;;;6.67;5.37;;;;;;;-0.79;80.66;94483.47;4978327;28;20173;-79
2023/11/29 06:39:48;;;;;;;6.93;5.30;;;;;;;-0.83;80.72;94484.59;4923357;28;1110705;-80
2023/11/29 06:42:14;;;;;;;7.47;5.40;;;;;;;-0.89;81.07;94488.34;4954939;28;20208;-79
2023/11/29 06:44:40;;;;;;;10.03;6.93;;;;;;;-0.80;80.62;94486.09;4960627;28;20267;-78
2023/11/29 06:47:05;;;;;;;9.03;6.63;;;;;;;-0.82;80.57;94487.94;4935902;28;20205;-80
2023/11/29 06:49:31;;;;;;;9.60;6.53;;;;;;;-0.73;80.24;94492.41;4969823;28;20189;-79
2023/11/29 06:51:56;;;;;;;9.60;7.70;;;;;;;-0.77;80.33;94496.94;4930175;29;20185;-78
2023/11/29 06:54:23;;;;;;;8.83;7.07;;;;;;;-0.72;79.20;94488.94;4953805;28;20216;-80
2023/11/29 06:56:49;;;;;;;8.57;6.57;;;;;;;-0.73;79.67;94487.31;4953867;28;20276;-82
2023/11/29 06:59:14;;;;;;;10.80;8.17;;;;;;;-0.98;80.52;94498.38;4969963;28;20213;-79
2023/11/29 07:01:39;;;;;;;9.97;7.73;;;;;;;-0.94;80.65;94498.06;4954181;28;20189;-78
2023/11/29 07:04:05;;;;;;;10.93;7.50;;;;;;;-0.95;80.50;94503.28;4953873;28;20307;-79
2023/11/29 07:06:31;;;;;;;11.40;8.00;;;;;;;-1.05;80.21;94490.34;4969637;28;20192;-79
2023/11/29 07:08:56;;;;;;;7.37;5.87;;;;;;;-1.00;80.57;94493.38;4956770;28;20533;-79
2023/11/29 07:11:22;;;;;;;10.93;7.20;;;;;;;-1.21;80.79;94484.66;4923143;29;20196;-78
2023/11/29 07:13:47;;;;;;;8.17;5.07;;;;;;;-1.19;80.48;94485.34;4936912;29;20220;-81
2023/11/29 07:16:12;;;;;;;7.60;5.83;;;;;;;-1.01;79.58;94486.66;4951623;28;20243;-80
2023/11/29 07:18:38;;;;;;;8.87;6.07;;;;;;;-1.10;79.39;94486.47;4954840;28;20667;-79
2023/11/29 07:21:06;;;;;;;6.60;5.00;;;;;;;-0.91;79.25;94474.91;4937558;28;20204;-81
2023/11/29 07:23:31;;;;;;;6.10;5.50;;;;;;;-0.71;81.38;94470.19;4968624;28;20686;-80
2023/11/29 07:25:57;;;;;;;6.70;4.93;;;;;;;-0.65;78.25;94469.75;4945530;28;20190;-80
2023/11/29 07:28:24;;;;;;;6.27;4.70;;;;;;;-0.78;78.50;94474.91;4953630;28;20235;-81
2023/11/29 07:30:49;;;;;;;6.77;5.13;;;;;;;-0.85;79.81;94473.69;4956669;28;20189;-79
2023/11/29 07:33:15;;;;;;;5.93;4.50;;;;;;;-0.69;78.67;94483.66;4964768;28;20216;-79
2023/11/29 07:35:41;;;;;;;6.00;4.60;;;;;;;-0.62;78.65;94474.63;4970144;28;20189;-79
2023/11/29 07:38:06;;;;;;;4.13;3.63;;;;;;;-0.83;78.84;94484.59;4954779;28;20186;-80
2023/11/29 07:40:32;;;;;;;4.77;4.07;;;;;;;-1.08;78.72;94482.88;4943707;28;20210;-81
2023/11/29 07:42:58;;;;;;;5.40;4.50;;;;;;;-1.06;79.54;94488.72;4955989;28;20216;-81
2023/11/29 07:45:23;;;;;;;5.37;4.20;;;;;;;-0.98;78.69;94483.88;4969970;28;20794;-80
2023/11/29 07:47:48;;;;;;;5.27;4.10;;;;;;;-0.98;79.54;94494.09;4937315;29;20216;-81
2023/11/29 07:50:14;;;;;;;6.80;4.10;;;;;;;-0.81;79.04;94484.47;4942989;28;20272;-80
2023/11/29 07:52:40;;;;;;;5.63;4.27;;;;;;;-1.09;78.99;94483.00;4956446;28;20219;-81
2023/11/29 07:55:07;;;;;;;5.60;4.20;;;;;;;-0.74;78.70;94490.78;4952409;28;20284;-81
2023/11/29 07:57:32;;;;;;;6.27;4.77;;;;;;;-0.79;79.12;94495.41;4950806;28;20197;-80
2023/11/29 07:59:58;;;;;;;7.17;4.50;;;;;;;-0.68;79.14;94495.47;4956976;28;20219;-81
2023/11/29 08:02:23;;;;;;;7.77;4.43;;;;;;;-0.83;79.43;94496.53;4955228;28;20256;-81
2023/11/29 08:04:49;;;;;;;5.87;4.43;;;;;;;-0.93;81.05;94497.16;4952861;28;20227;-81
2023/11/29 08:07:15;;;;;;;5.83;4.70;;;;;;;-0.94;80.99;94495.53;4952655;28;20720;-79
2023/11/29 08:09:40;;;;;;;6.80;5.37;;;;;;;-0.73;81.60;94494.97;4964206;28;20196;-79
2023/11/29 08:12:06;;;;;;;6.73;5.13;;;;;;;-0.62;81.10;94489.94;4973253;28;20205;-80
2023/11/29 08:14:32;;;;;;;5.63;4.90;;;;;;;-0.77;81.15;94491.00;4955040;28;20314;-80
2023/11/29 08:16:58;;;;;;;7.00;5.10;;;;;;;-0.75;81.34;94495.06;4955790;28;20276;-80
2023/11/29 08:19:25;;;;;;;7.70;4.67;;;;;;;-0.67;81.34;94492.00;4965827;28;20233;-79
2023/11/29 08:21:50;;;;;;;6.13;4.77;;;;;;;-0.87;82.02;94501.84;4951086;29;20196;-78
2023/11/29 08:24:15;;;;;;;5.30;4.23;;;;;;;-0.72;82.35;94499.97;4966152;29;20203;-79
2023/11/29 08:26:41;;;;;;;5.00;4.13;;;;;;;-0.94;82.78;94515.91;4970804;29;20220;-79
2023/11/29 08:29:06;;;;;;;5.40;4.60;;;;;;;-0.83;85.72;94522.00;4975336;29;20274;-81
2023/11/29 08:31:32;;;;;;;10.60;5.00;;;;;;;-0.82;86.26;94518.53;4992092;28;20170;-82
2023/11/29 08:33:57;;;;;;;6.13;5.17;;;;;;;-0.68;85.78;94508.22;4995230;28;20212;-83
2023/11/29 08:36:22;;;;;;;7.20;5.60;;;;;;;-0.64;85.74;94505.34;4990918;28;20197;-80
2023/11/29 08:38:51;;;;;;;5.80;4.83;;;;;;;-0.80;86.93;94496.31;4992992;28;20271;-82
2023/11/29 08:41:17;;;;;;;6.20;4.53;;;;;;;-1.01;86.69;94489.22;4942868;28;20235;-84
2023/11/29 08:43:42;;;;;;;6.23;4.50;;;;;;;-0.87;85.96;94485.72;4971434;28;20212;-83
2023/11/29 08:46:10;;;;;;;7.10;4.83;;;;;;;-0.69;84.74;94481.09;4939716;28;20185;-84
2023/11/29 08:48:38;;;;;;;5.57;4.53;;;;;;;-0.69;84.08;94474.28;4971033;28;20240;-83
2023/11/29 08:51:07;;;;;;;5.33;4.17;;;;;;;-0.50;84.00;94476.34;4971344;28;20284;-83
2023/11/29 08:53:32;;;;;;;5.13;4.33;;;;;;;-0.40;82.96;94469.69;4957107;28;20231;-83
2023/11/29 08:55:58;;;;;;;5.33;4.13;;;;;;;-0.50;82.38;94475.53;4957219;28;20185;-84
2023/11/29 08:58:23;;;;;;;5.40;4.50;;;;;;;-0.12;81.77;94460.06;4958301;28;20196;-83
2023/11/29 09:00:48;;;;;;;7.50;4.83;;;;;;;-0.09;80.46;94462.38;4941741;29;20694;-82
2023/11/29 09:03:14;;;;;;;4.60;3.47;;;;;;;-0.30;80.28;94457.09;4969358;28;20253;-83
2023/11/29 09:05:42;;;;;;;6.77;4.27;;;;;;;-0.08;80.77;94453.84;4938734;28;20212;-82
2023/11/29 09:08:07;;;;;;;4.93;3.70;;;;;;;-0.05;79.38;94456.16;4941077;28;20201;-82
2023/11/29 09:10:33;;;;;;;5.77;3.70;;;;;;;0.02;79.82;94449.69;4956565;28;20268;-83
2023/11/29 09:12:59;;;;;;;5.43;3.80;;;;;;;0.05;79.30;94443.53;4935358;28;20208;-83
2023/11/29 09:15:25;;;;;;;4.30;3.87;;;;;;;0.20;78.33;94438.16;4955361;28;20256;-83
2023/11/29 09:17:51;;;;;;;5.93;3.50;;;;;;;0.11;78.72;94453.31;4953816;28;20653;-83
2023/11/29 09:20:16;;;;;;;4.70;3.60;;;;;;;0.45;78.42;94447.38;4946004;28;20185;-82
2023/11/29 09:22:42;;;;;;;3.70;3.00;;;;;;;0.14;78.30;94459.00;4972684;28;20316;-81
2023/11/29 09:25:07;;;;;;;4.07;3.67;;;;;;;0.32;77.79;94461.97;4956547;28;20772;-83
2023/11/29 09:27:33;;;;;;;6.53;4.23;;;;;;;0.33;77.25;94467.88;4959423;28;20296;-82
2023/11/29 09:29:58;;;;;;;6.97;4.10;;;;;;;0.11;78.34;94464.34;4958580;28;20191;-83
2023/11/29 09:32:24;;;;;;;4.37;3.47;;;;;;;0.10;78.26;94467.00;4972392;28;20220;-81
2023/11/29 09:34:49;;;;;;;4.50;3.50;;;;;;;0.42;77.95;94468.00;4939682;28;20189;-82
2023/11/29 09:37:14;;;;;;;4.23;3.17;;;;;;;0.24;78.18;94465.06;4943613;28;20208;-82
2023/11/29 09:39:40;;;;;;;5.37;3.20;;;;;;;0.56;77.77;94469.56;4973055;28;20186;-86
2023/11/29 09:42:06;;;;;;;4.47;3.40;;;;;;;0.67;77.75;94467.03;4957529;28;20284;-81
2023/11/29 09:44:32;;;;;;;3.27;2.83;;;;;;;0.74;78.01;94470.75;4958218;28;20185;-82
2023/11/29 09:46:58;;;;;;;4.00;3.43;;;;;;;0.28;79.21;94469.03;4955497;28;20679;-81
2023/11/29 09:49:24;;;;;;;4.03;3.57;;;;;;;0.44;79.79;94467.91;4945710;29;20197;-81
2023/11/29 09:51:50;;;;;;;3.50;3.13;;;;;;;0.64;79.60;94476.66;4975989;28;20181;-80
2023/11/29 09:54:16;;;;;;;3.80;3.17;;;;;;;0.64;79.76;94471.56;4939200;28;20276;-84
2023/11/29 09:56:44;;;;;;;4.77;3.20;;;;;;;0.57;80.08;94471.19;4935907;28;20212;-81
2023/11/29 09:59:10;;;;;;;3.10;2.73;;;;;;;0.40;80.34;94474.16;4959645;28;20180;-83
2023/11/29 10:01:47;;;;;;;5.37;3.10;;;;;;;0.40;80.35;94480.09;4956433;28;20266;-82
2023/11/29 10:04:13;;;;;;;3.23;2.93;;;;;;;0.18;82.31;94474.94;4956100;28;20197;-83
2023/11/29 10:06:39;;;;;;;3.93;3.47;;;;;;;0.26;82.40;94478.53;4957320;28;20184;-84
2023/11/29 10:09:11;;;;;;;3.80;2.83;;;;;;;0.29;82.90;94469.84;4958358;28;20204;-81
2023/11/29 10:11:37;;;;;;;4.93;3.30;;;;;;;0.69;81.45;94459.22;4927034;29;20189;-83
2023/11/29 10:14:05;;;;;;;4.13;3.23;;;;;;;0.67;82.06;94461.09;4957845;28;20212;-82
2023/11/29 10:16:31;;;;;;;3.97;3.33;;;;;;;0.93;81.59;94456.59;4968694;28;20195;-81
2023/11/29 10:18:57;;;;;;;4.47;2.97;;;;;;;1.25;80.05;94456.69;4946461;28;20181;-81
2023/11/29 10:21:23;;;;;;;3.40;2.93;;;;;;;1.54;78.85;94454.44;4957359;28;20216;-81
2023/11/29 10:23:49;;;;;;;4.03;2.87;;;;;;;1.92;77.00;94451.41;4937359;29;20202;-83
2023/11/29 10:26:15;;;;;;;4.43;2.77;;;;;;;1.69;77.42;94451.50;4939729;28;20243;-82
2023/11/29 10:28:40;;;;;;;3.07;2.53;;;;;;;1.52;77.35;94448.63;4971246;28;20299;-80
2023/11/29 10:31:06;;;;;;;2.63;2.40;;;;;;;1.75;77.52;94445.06;4937724;28;20177;-76
2023/11/29 10:33:32;;;;;;;2.63;2.40;;;;;;;1.73;76.77;94446.13;4937740;29;20209;-78
2023/11/29 10:36:00;;;;;;;3.13;2.77;;;;;;;2.01;76.31;94439.63;4938970;28;20191;-78
2023/11/29 10:38:26;;;;;;;2.53;2.33;;;;;;;2.15;74.16;94439.34;4951063;28;20193;-78
2023/11/29 10:40:52;;;;;;;3.57;2.90;;;;;;;2.10;74.43;94438.88;4957754;28;20196;-79
2023/11/29 10:43:24;;;;;;;3.00;2.17;;;;;;;1.86;75.14;94439.94;4952967;28;20992;-78
2023/11/29 10:45:52;;;;;;;2.63;2.43;;;;;;;2.30;74.81;94434.69;4965913;28;20537;-78
2023/11/29 10:48:23;;;;;;;4.07;3.20;;;;;;;2.71;74.09;94433.88;4951970;28;20257;-78
2023/11/29 10:50:49;;;;;;;2.43;2.20;;;;;;;2.32;73.17;94433.66;4954443;28;20195;-78
2023/11/29 10:53:15;;;;;;;3.93;2.27;;;;;;;3.41;71.95;94435.63;4937438;28;20674;-79
2023/11/29 10:55:42;;;;;;;2.70;2.50;;;;;;;3.30;72.02;94422.94;4935026;29;20231;-78
2023/11/29 10:58:18;;;;;;;3.57;2.20;;;;;;;2.46;72.79;94424.84;4951801;28;20546;-78
2023/11/29 11:00:46;;;;;;;3.23;2.07;;;;;;;2.34;72.67;94433.53;4940483;28;20181;-78
2023/11/29 11:03:42;;;;;;;3.23;1.83;;;;;;;2.68;73.06;94423.88;4938610;28;20202;-77
2023/11/29 11:06:22;;;;;;;2.50;2.07;;;;;;;2.30;73.16;94415.06;4934307;28;20195;-78
2023/11/29 11:08:52;;;;;;;2.37;2.07;;;;;;;2.10;73.57;94414.09;4953481;28;20259;-76
2023/11/29 11:11:43;;;;;;;3.43;2.10;;;;;;;2.14;73.61;94410.34;4950477;28;20185;-79
2023/11/29 11:14:21;;;;;;;2.30;2.10;;;;;;;2.57;72.99;94411.97;4956690;28;20767;-79
2023/11/29 11:17:06;;;;;;;3.67;1.67;;;;;;;2.74;72.42;94400.28;4936531;29;20272;-79
2023/11/29 11:19:40;;;;;;;2.70;2.00;;;;;;;3.02;71.50;94406.50;4953387;28;20610;-79
2023/11/29 11:22:26;;;;;;;4.57;2.30;;;;;;;3.23;70.86;94407.22;4921323;28;20648;-80
2023/11/29 11:25:05;;;;;;;1.90;1.80;;;;;;;2.80;72.22;94402.34;4917987;28;20228;-79
2023/11/29 11:27:35;;;;;;;2.43;1.70;;;;;;;2.77;71.56;94403.44;4952657;28;20244;-83